Latest Coastal Weather Observations for Aireys Inlet

IDV60701

Issued at 11:11 pm EST Monday 3 August 2015 (issued every 10 minutes, with the page automatically refreshed every 10 minutes)

About coastal observations | Map of coastal stations | Coastal observations for VIC | Marine services | Other Formats
Station Details ID: 090180 Name: AIREYS INLET Lat: -38.46 Lon: 144.09 Height: 95.0 m
Data from the previous 72 hours. | See also: Recent months at Aireys Inlet
Date/Time
EST
Temp

°C
Wind Pressure Rain
since 9am
mm
Weather Cloud Vis
km
Sea
Height
m
Swell
Dir
 
Speed
knots
Gust
knots
hPa Trend Height
m
Period
s
Dir
03/11:00pm 5.2 WNW 8 10 - - 0.2 - - - - - - -
03/10:30pm 5.3 WNW 7 9 - - 0.2 - - - - - - -
03/10:00pm 5.8 WNW 8 11 - - 0.2 - - - - - - -
03/09:30pm 6.5 W 9 14 - - 0.2 - - - - - - -
03/09:00pm 5.7 W 8 12 - - 0.2 - - - - - - -
03/08:30pm 5.8 W 8 12 - - 0.2 - - - - - - -
03/08:00pm 5.8 W 7 10 - - 0.2 - - - - - - -
03/07:30pm 6.3 WSW 11 17 - - 0.2 - - - - - - -
03/07:00pm 5.3 NW 8 13 - - 0.2 - - - - - - -
03/06:30pm 5.8 W 10 15 - - 0.2 - - - - - - -
03/06:00pm 6.2 W 11 18 - - 0.2 - - - - - - -
03/05:30pm 5.8 WNW 9 12 - - 0.2 - - - - - - -
03/05:00pm 6.3 WSW 11 20 - - 0.2 - - - - - - -
03/04:30pm 8.3 W 7 11 - - 0.2 - - - - - - -
03/04:00pm 8.2 W 9 15 - - 0.2 - - - - - - -
03/03:30pm 8.1 WSW 17 23 - - 0.2 - - - - - - -
03/03:00pm 8.3 WSW 12 18 - - 0.2 - - - - - - -
03/02:30pm 6.9 WSW 22 33 - - 0.2 - - - - - - -
03/02:29pm 6.9 WSW 21 33 - - 0.2 - - - - - - -
03/02:24pm 6.4 SW 20 30 - - 0.2 - - - - - - -
03/02:15pm 7.4 SW 16 28 - - 0.2 - - - - - - -
03/02:00pm 7.7 SW 13 25 - - 0.2 - - - - - - -
03/01:30pm 9.5 WSW 12 20 - - 0.2 - - - - - - -
03/01:00pm 7.5 SW 16 25 - - 0.2 - - - - - - -
03/12:30pm 7.6 SW 16 24 - - 0.2 - - - - - - -
03/12:02pm 7.8 WSW 17 28 - - 0.2 - - - - - - -
03/12:00pm 8.0 WSW 16 23 - - 0.2 Recent precip. - - - - - -
03/11:30am 5.0 WSW 18 35 - - 0.2 - - - - - - -
03/11:12am 6.7 SW 19 30 - - 0.0 - - - - - - -
03/11:00am 8.1 WSW 14 22 - - 0.0 - - - - - - -
03/10:30am 7.2 W 12 18 - - 0.0 - - - - - - -
03/10:04am 6.8 WSW 16 27 - - 0.0 - - - - - - -
03/10:00am 7.0 WSW 15 20 - - 0.0 - - - - - - -
03/09:40am 6.6 WSW 15 25 - - 0.0 - - - - - - -
03/09:30am 6.6 WSW 13 18 - - 0.0 - - - - - - -
03/09:00am 5.1 WSW 13 19 - - 3.6 Rain - - - - - -
03/08:30am 5.5 WSW 15 23 - - 3.4 - - - - - - -
03/08:00am 5.0 WSW 19 34 - - 3.4 - - - - - - -
03/07:56am 5.6 WSW 15 32 - - 3.4 - - - - - - -
03/07:30am 6.1 W 12 18 - - 3.2 - - - - - - -
03/07:00am 6.2 WSW 11 19 - - 3.2 - - - - - - -
03/06:34am 6.4 WSW 15 26 - - 3.2 - - - - - - -
03/06:30am 6.3 WSW 12 20 - - 3.2 - - - - - - -
03/06:00am 6.4 W 11 18 - - 3.2 - - - - - - -
03/05:30am 6.3 WSW 7 15 - - 3.2 - - - - - - -
03/05:00am 6.2 W 9 11 - - 3.2 - - - - - - -
03/04:30am 6.3 W 6 9 - - 3.2 - - - - - - -
03/04:00am 6.7 W 12 20 - - 2.8 - - - - - - -
03/03:30am 6.8 WSW 8 12 - - 2.6 - - - - - - -
03/03:00am 7.0 W 10 16 - - 2.2 Recent precip. - - - - - -
03/02:30am 6.8 W 9 21 - - 2.2 - - - - - - -
03/02:00am 7.2 W 12 24 - - 1.8 - - - - - - -
03/01:44am 7.2 W 17 34 - - 1.8 - - - - - - -
03/01:30am 7.3 W 11 25 - - 1.6 - - - - - - -
03/01:00am 7.5 WNW 9 19 - - 1.4 - - - - - - -
03/12:30am 7.5 W 9 15 - - 1.0 - - - - - - -
03/12:00am 7.4 WNW 9 21 - - 0.8 - - - - - - -
 
Date/Time
EST
Temp

°C
Wind Pressure Rain
since 9am
mm
Weather Cloud Vis
km
Sea
Height
m
Swell
Dir
 
Speed
knots
Gust
knots
hPa Trend Height
m
Period
s
Dir
02/11:30pm 7.4 WNW 10 20 - - 0.8 - - - - - - -
02/11:00pm 7.6 WNW 12 19 - - 0.8 - - - - - - -
02/10:30pm 8.2 WNW 10 21 - - 0.6 - - - - - - -
02/10:00pm 8.3 NW 7 19 - - 0.6 - - - - - - -
02/09:30pm 8.2 WNW 6 18 - - 0.6 - - - - - - -
02/09:00pm 8.1 WNW 6 15 - - 0.6 - - - - - - -
02/08:30pm 7.9 WNW 3 9 - - 0.6 - - - - - - -
02/08:00pm 8.3 WNW 7 12 - - 0.6 - - - - - - -
02/07:30pm 8.3 W 5 9 - - 0.6 - - - - - - -
02/07:00pm 8.5 W 5 12 - - 0.6 - - - - - - -
02/06:30pm 9.1 W 13 22 - - 0.6 - - - - - - -
02/06:00pm 8.9 W 8 19 - - 0.6 - - - - - - -
02/05:30pm 9.0 W 13 22 - - 0.6 - - - - - - -
02/05:00pm 8.9 W 9 15 - - 0.6 - - - - - - -
02/04:30pm 9.0 WSW 11 18 - - 0.6 - - - - - - -
02/04:00pm 9.3 W 15 29 - - 0.6 - - - - - - -
02/03:55pm 9.3 W 16 26 - - 0.6 - - - - - - -
02/03:30pm 9.6 W 14 23 - - 0.6 - - - - - - -
02/03:06pm 9.6 W 15 29 - - 0.6 - - - - - - -
02/03:00pm 9.7 W 14 27 - - 0.6 Recent precip. - - - - - -
02/02:30pm 9.8 W 12 22 - - 0.2 - - - - - - -
02/02:00pm 11.2 WNW 20 36 - - 0.0 - - - - - - -
02/01:35pm 12.6 WNW 15 33 - - 0.0 - - - - - - -
02/01:30pm 12.5 WNW 13 25 - - 0.0 - - - - - - -
02/01:00pm 11.7 WNW 20 33 - - 0.0 - - - - - - -
02/12:30pm 11.8 WNW 17 37 - - 0.0 - - - - - - -
02/12:00pm 11.4 NW 15 29 - - 0.0 - - - - - - -
02/11:30am 10.2 WNW 14 24 - - 0.0 - - - - - - -
02/11:16am 9.8 WNW 15 35 - - 0.0 - - - - - - -
02/11:00am 10.0 WNW 11 24 - - 0.0 - - - - - - -
02/10:30am 9.5 NNW 7 18 - - 0.0 - - - - - - -
02/10:00am 8.1 NW 9 19 - - 0.0 - - - - - - -
02/09:30am 7.5 NNW 10 20 - - 0.0 - - - - - - -
02/09:00am 6.9 NNW 10 15 - - 0.0 - - - - - - -
02/08:30am 6.1 NW 13 19 - - 0.0 - - - - - - -
02/08:00am 5.8 NW 15 22 - - 0.0 - - - - - - -
02/07:30am 5.9 NW 12 23 - - 0.0 - - - - - - -
02/07:00am 6.3 NW 14 23 - - 0.0 - - - - - - -
02/06:30am 6.5 NW 16 25 - - 0.0 - - - - - - -
02/06:07am 6.6 NW 17 27 - - 0.0 - - - - - - -
02/06:00am 6.6 NW 17 27 - - 0.0 - - - - - - -
02/05:45am 6.5 NW 15 27 - - 0.0 - - - - - - -
02/05:30am 6.5 NW 14 21 - - 0.0 - - - - - - -
02/05:00am 6.3 NW 7 12 - - 0.0 - - - - - - -
02/04:30am 6.5 NW 6 10 - - 0.0 - - - - - - -
02/04:00am 7.1 NW 6 11 - - 0.0 - - - - - - -
02/03:30am 6.4 NNW 8 14 - - 0.0 - - - - - - -
02/03:00am 6.4 N 5 9 - - 0.0 - - - - - - -
02/02:30am 6.3 NNW 4 7 - - 0.0 - - - - - - -
02/02:00am 6.1 NNW 5 9 - - 0.0 - - - - - - -
02/01:30am 6.6 NW 8 13 - - 0.0 - - - - - - -
02/01:00am 6.4 N 4 10 - - 0.0 - - - - - - -
02/12:30am 6.3 N 4 6 - - 0.0 - - - - - - -
02/12:00am 6.8 NNW 4 9 - - 0.0 - - - - - - -
 
Date/Time
EST
Temp

°C
Wind Pressure Rain
since 9am
mm
Weather Cloud Vis
km
Sea
Height
m
Swell
Dir
 
Speed
knots
Gust
knots
hPa Trend Height
m
Period
s
Dir
01/11:30pm 7.4 NW 5 10 - - 0.0 - - - - - - -
01/11:00pm 6.8 NNW 6 8 - - 0.0 - - - - - - -
01/10:30pm 6.8 N 5 9 - - 0.0 - - - - - - -
01/10:00pm 6.5 N 5 7 - - 0.0 - - - - - - -
01/09:30pm 6.7 N 5 6 - - 0.0 - - - - - - -
01/09:00pm 7.3 NNW 3 5 - - 0.0 - - - - - - -
01/08:30pm 7.6 NW 4 5 - - 0.0 - - - - - - -
01/08:00pm 7.6 NW 5 6 - - 0.0 - - - - - - -
01/07:30pm 7.4 NW 6 8 - - 0.0 - - - - - - -
01/07:00pm 7.8 WNW 8 9 - - 0.0 - - - - - - -
01/06:30pm 8.2 WNW 7 9 - - 0.0 - - - - - - -
01/06:00pm 8.6 WNW 7 11 - - 0.0 - - - - - - -
01/05:30pm 8.9 WNW 7 10 - - 0.0 - - - - - - -
01/05:00pm 9.3 WNW 6 8 - - 0.0 - - - - - - -
01/04:30pm 9.4 NW 4 6 - - 0.0 - - - - - - -
01/04:00pm 9.9 WNW 5 7 - - 0.0 - - - - - - -
01/03:30pm 10.2 W 7 12 - - 0.0 - - - - - - -
01/03:00pm 10.5 W 10 14 - - 0.0 - - - - - - -
01/02:30pm 10.4 WSW 7 10 - - 0.0 - - - - - - -
01/02:00pm 11.6 W 7 11 - - 0.0 - - - - - - -
01/01:30pm 10.9 W 7 10 - - 0.0 - - - - - - -
01/01:00pm 10.9 WSW 6 9 - - 0.0 - - - - - - -
01/12:30pm 10.7 WSW 7 11 - - 0.0 - - - - - - -
01/12:00pm 10.4 WSW 12 17 - - 0.0 - - - - - - -
01/11:30am 10.2 WSW 6 9 - - 0.0 - - - - - - -
01/11:00am 9.9 WSW 8 14 - - 0.0 - - - - - - -
01/10:30am 10.2 WSW 6 10 - - 0.0 - - - - - - -
01/10:00am 9.5 WSW 5 8 - - 0.0 - - - - - - -
01/09:30am 9.0 WSW 8 12 - - 0.0 - - - - - - -
01/09:00am 8.7 W 8 11 - - 1.0 - - - - - - -
01/08:30am 8.4 WSW 10 13 - - 1.0 - - - - - - -
01/08:00am 8.1 WSW 10 17 - - 1.0 - - - - - - -
01/07:30am 8.6 SW 12 19 - - 1.0 - - - - - - -
01/07:00am 9.0 SW 8 16 - - 1.0 - - - - - - -
01/06:30am 9.3 WNW 15 24 - - 1.0 - - - - - - -
01/06:00am 8.8 WNW 19 28 - - 0.8 Rain - - - - - -
01/05:30am 9.2 NW 25 35 - - 0.4 - - - - - - -
01/05:00am 9.5 NW 27 40 - - 0.2 - - - - - - -
01/04:30am 9.6 NW 23 38 - - 0.0 - - - - - - -
01/04:01am 10.6 NW 23 33 - - 0.0 - - - - - - -
01/04:00am 10.7 NW 24 33 - - 0.0 - - - - - - -
01/03:30am 10.5 NNW 19 34 - - 0.0 - - - - - - -
01/03:08am 10.2 NNW 16 28 - - 0.0 - - - - - - -
01/03:00am 10.0 NNW 13 29 - - 0.0 - - - - - - -
01/02:30am 9.5 NNW 4 9 - - 0.0 - - - - - - -
01/02:00am 8.8 N 5 16 - - 0.0 - - - - - - -
01/01:30am 8.3 NE 7 13 - - 0.0 - - - - - - -
01/01:00am 8.3 NE 5 8 - - 0.0 - - - - - - -
01/12:30am 8.7 N 7 13 - - 0.0 - - - - - - -
01/12:00am 8.5 NNE 6 10 - - 0.0 - - - - - - -
 
Date/Time
EST
Temp

°C
Wind Pressure Rain
since 9am
mm
Weather Cloud Vis
km
Sea
Height
m
Swell
Dir
 
Speed
knots
Gust
knots
hPa Trend Height
m
Period
s
Dir
31/11:30pm 8.5 NNE 10 17 - - 0.0 - - - - - - -

Other Formats:

Comma delimited format used in spreadsheet applications
http://www.bom.gov.au/fwo/IDV60701/IDV60701.94846.axf

JavaScript Object Notation format (JSON) in row-major order
http://www.bom.gov.au/fwo/IDV60701/IDV60701.94846.json